createdAt,value
2023-03-26T00:03:17.754Z,349.00
2023-03-26T00:07:17.731Z,349.00
2023-03-26T00:11:17.701Z,350.00
2023-03-26T00:15:17.660Z,355.00
2023-03-26T00:19:17.626Z,358.00
2023-03-26T00:23:17.607Z,360.00
2023-03-26T00:27:17.545Z,355.00
2023-03-26T00:31:17.569Z,354.00
2023-03-26T00:35:17.475Z,354.00
2023-03-26T00:39:17.452Z,350.00
2023-03-26T00:43:17.400Z,349.00
2023-03-26T00:47:17.373Z,354.00
2023-03-26T00:51:17.625Z,355.00
2023-03-26T00:55:17.608Z,356.00
2023-03-26T00:59:17.513Z,355.00
2023-03-26T01:03:26.694Z,356.00
2023-03-26T01:07:18.478Z,360.00
2023-03-26T01:11:17.434Z,359.00
2023-03-26T01:15:17.548Z,359.00
2023-03-26T01:19:17.508Z,365.00
2023-03-26T01:23:17.529Z,368.00
2023-03-26T01:27:17.429Z,365.00
2023-03-26T01:31:17.390Z,368.00
2023-03-26T01:35:17.463Z,365.00
2023-03-26T01:39:17.332Z,361.00
2023-03-26T01:43:17.294Z,363.00
2023-03-26T01:47:17.249Z,369.00
2023-03-26T01:51:17.238Z,365.00
2023-03-26T01:55:17.182Z,366.00
2023-03-26T01:59:17.140Z,361.00
2023-03-26T02:03:17.493Z,364.00
2023-03-26T02:07:17.549Z,364.00
2023-03-26T02:11:17.720Z,363.00
2023-03-26T02:15:17.902Z,356.00
2023-03-26T02:19:18.047Z,365.00
2023-03-26T02:23:18.016Z,365.00
2023-03-26T02:27:17.978Z,365.00
2023-03-26T02:31:17.956Z,362.00
2023-03-26T02:35:17.962Z,363.00
2023-03-26T02:39:17.891Z,360.00
2023-03-26T02:43:17.823Z,364.00
2023-03-26T02:47:17.783Z,361.00
2023-03-26T02:51:17.743Z,358.00
2023-03-26T02:55:17.741Z,358.00
2023-03-26T02:59:17.669Z,363.00
2023-03-26T03:03:17.672Z,362.00
2023-03-26T03:07:17.695Z,360.00
2023-03-26T03:11:17.876Z,361.00
2023-03-26T03:15:17.999Z,362.00
2023-03-26T03:19:18.186Z,361.00
2023-03-26T03:23:18.406Z,352.00
2023-03-26T03:27:18.540Z,355.00
2023-03-26T03:31:18.779Z,358.00
2023-03-26T03:35:18.876Z,359.00
2023-03-26T03:39:19.021Z,362.00
2023-03-26T03:43:19.187Z,364.00
2023-03-26T03:47:19.380Z,362.00
2023-03-26T03:51:19.577Z,360.00
2023-03-26T03:55:19.770Z,362.00
2023-03-26T03:59:19.889Z,361.00
2023-03-26T04:03:20.211Z,359.00
2023-03-26T04:07:21.034Z,357.00
2023-03-26T04:11:19.981Z,358.00
2023-03-26T04:15:20.142Z,362.00
2023-03-26T04:19:20.385Z,362.00
2023-03-26T04:23:20.506Z,358.00
2023-03-26T04:27:20.668Z,356.00
2023-03-26T04:31:20.812Z,358.00
2023-03-26T04:35:20.905Z,363.00
2023-03-26T04:39:21.086Z,357.00
2023-03-26T04:43:21.244Z,361.00
2023-03-26T04:47:21.489Z,365.00
2023-03-26T04:51:21.619Z,360.00
2023-03-26T04:55:21.815Z,359.00
2023-03-26T04:59:21.915Z,362.00
2023-03-26T05:03:22.076Z,360.00
2023-03-26T05:07:22.237Z,361.00
2023-03-26T05:11:22.394Z,360.00
2023-03-26T05:15:22.525Z,364.00
2023-03-26T05:19:22.598Z,362.00
2023-03-26T05:23:22.657Z,365.00
2023-03-26T05:27:22.708Z,366.00
2023-03-26T05:31:22.835Z,364.00
2023-03-26T05:35:23.012Z,368.00
2023-03-26T05:39:23.185Z,369.00
2023-03-26T05:43:23.305Z,372.00
2023-03-26T05:47:23.511Z,368.00
2023-03-26T05:51:23.683Z,367.00
2023-03-26T05:55:23.927Z,359.00
2023-03-26T05:59:24.100Z,361.00
2023-03-26T06:03:24.363Z,354.00
2023-03-26T06:07:24.418Z,355.00
2023-03-26T06:11:24.586Z,358.00
2023-03-26T06:15:24.814Z,359.00
2023-03-26T06:19:24.989Z,360.00
2023-03-26T06:23:24.956Z,361.00
2023-03-26T06:27:24.899Z,356.00
2023-03-26T06:31:24.931Z,359.00
2023-03-26T06:35:24.898Z,356.00
2023-03-26T06:39:24.806Z,363.00
2023-03-26T06:43:24.760Z,363.00
2023-03-26T06:47:24.790Z,357.00
2023-03-26T06:51:24.704Z,362.00
2023-03-26T06:55:24.670Z,363.00
2023-03-26T06:59:24.633Z,361.00
2023-03-26T07:03:24.801Z,359.00
2023-03-26T07:07:24.782Z,362.00
2023-03-26T07:11:24.741Z,362.00
2023-03-26T07:15:24.742Z,365.00
2023-03-26T07:19:24.657Z,370.00
2023-03-26T07:23:24.616Z,366.00
2023-03-26T07:27:24.593Z,370.00
2023-03-26T07:31:24.642Z,365.00
2023-03-26T07:35:24.556Z,364.00
2023-03-26T07:39:25.703Z,365.00
2023-03-26T07:43:24.451Z,358.00
2023-03-26T07:47:24.599Z,356.00
2023-03-26T07:51:24.772Z,355.00
2023-03-26T07:55:24.982Z,359.00
2023-03-26T07:59:25.161Z,364.00
2023-03-26T08:03:25.408Z,363.00
2023-03-26T08:07:25.503Z,365.00
2023-03-26T08:11:25.686Z,360.00
2023-03-26T08:15:25.942Z,359.00
2023-03-26T08:19:26.012Z,362.00
2023-03-26T08:23:26.195Z,364.00
2023-03-26T08:27:26.346Z,359.00
2023-03-26T08:31:26.519Z,363.00
2023-03-26T08:35:26.665Z,364.00
2023-03-26T08:39:26.811Z,359.00
2023-03-26T08:43:26.964Z,363.00
2023-03-26T08:47:27.170Z,363.00
2023-03-26T08:51:27.330Z,359.00
2023-03-26T08:55:27.526Z,361.00
2023-03-26T08:59:27.726Z,357.00
2023-03-26T09:03:27.919Z,359.00
2023-03-26T09:07:28.110Z,358.00
2023-03-26T09:11:28.293Z,358.00
2023-03-26T09:15:28.520Z,362.00
2023-03-26T09:19:28.703Z,362.00
2023-03-26T09:23:28.871Z,365.00
2023-03-26T09:27:29.048Z,362.00
2023-03-26T09:31:29.199Z,355.00
2023-03-26T09:35:29.354Z,356.00
2023-03-26T09:39:29.481Z,358.00
2023-03-26T09:43:29.593Z,355.00
2023-03-26T09:47:29.713Z,355.00
2023-03-26T09:51:29.786Z,352.00
2023-03-26T09:55:29.887Z,354.00
2023-03-26T09:59:30.011Z,356.00
2023-03-26T10:03:30.103Z,356.00
2023-03-26T10:07:30.172Z,355.00
2023-03-26T10:11:30.271Z,354.00
2023-03-26T10:15:30.374Z,355.00
2023-03-26T10:19:30.448Z,354.00
2023-03-26T10:23:30.551Z,352.00
2023-03-26T10:27:30.648Z,350.00
2023-03-26T10:31:30.760Z,353.00
2023-03-26T10:35:30.927Z,355.00
2023-03-26T10:39:36.961Z,355.00
2023-03-26T10:43:31.906Z,361.00
2023-03-26T10:47:30.903Z,355.00
2023-03-26T10:51:30.817Z,356.00
2023-03-26T10:55:30.782Z,355.00
2023-03-26T10:59:30.749Z,350.00
2023-03-26T11:03:30.840Z,354.00
2023-03-26T11:07:30.918Z,355.00
2023-03-26T11:11:31.012Z,353.00
2023-03-26T11:15:31.146Z,349.00
2023-03-26T11:19:31.246Z,351.00
2023-03-26T11:23:31.259Z,352.00
2023-03-26T11:27:31.360Z,350.00
2023-03-26T11:31:31.540Z,348.00
2023-03-26T11:35:40.525Z,350.00
2023-03-26T11:39:32.502Z,354.00
2023-03-26T11:43:31.468Z,351.00
2023-03-26T11:47:31.470Z,354.00
2023-03-26T11:51:31.441Z,356.00
2023-03-26T11:55:31.348Z,354.00
2023-03-26T11:59:32.762Z,356.00
2023-03-26T12:03:31.393Z,355.00
2023-03-26T12:07:31.353Z,352.00
2023-03-26T12:11:33.161Z,355.00
2023-03-26T12:15:31.281Z,346.00
2023-03-26T12:19:31.248Z,346.00
2023-03-26T12:23:31.207Z,343.00
2023-03-26T12:27:31.160Z,343.00
2023-03-26T12:31:31.150Z,348.00
2023-03-26T12:35:31.144Z,347.00
2023-03-26T12:40:06.717Z,350.00
2023-03-26T12:44:46.408Z,352.00
2023-03-26T12:47:56.356Z,353.00
2023-03-26T12:51:31.933Z,351.00
2023-03-26T12:55:30.900Z,350.00
2023-03-26T12:59:30.881Z,352.00
2023-03-26T13:03:30.867Z,347.00
2023-03-26T13:07:30.800Z,349.00
2023-03-26T13:11:30.773Z,350.00
2023-03-26T13:15:30.733Z,347.00
2023-03-26T13:19:30.682Z,352.00
2023-03-26T13:23:30.651Z,351.00
2023-03-26T13:27:30.608Z,351.00
2023-03-26T13:31:30.623Z,356.00
2023-03-26T13:35:30.731Z,350.00
2023-03-26T13:39:30.808Z,356.00
2023-03-26T13:43:30.996Z,349.00
2023-03-26T13:47:31.090Z,350.00
2023-03-26T13:51:31.259Z,351.00
2023-03-26T13:55:31.432Z,351.00
2023-03-26T13:59:31.586Z,354.00
2023-03-26T14:03:31.798Z,350.00
2023-03-26T14:07:31.911Z,343.00
2023-03-26T14:11:32.084Z,341.00
2023-03-26T14:15:32.283Z,341.00
2023-03-26T14:19:32.442Z,347.00
2023-03-26T14:23:32.612Z,345.00
2023-03-26T14:27:32.770Z,344.00
2023-03-26T14:31:32.995Z,344.00
2023-03-26T14:35:33.225Z,340.00
2023-03-26T14:39:33.341Z,347.00
2023-03-26T14:43:33.536Z,343.00
2023-03-26T14:47:33.841Z,344.00
2023-03-26T14:51:33.918Z,349.00
2023-03-26T14:55:34.111Z,345.00
2023-03-26T14:59:34.282Z,342.00
2023-03-26T15:03:34.510Z,338.00
2023-03-26T15:07:34.656Z,342.00
2023-03-26T15:11:34.862Z,341.00
2023-03-26T15:15:35.066Z,344.00
2023-03-26T15:19:35.267Z,350.00
2023-03-26T15:23:35.460Z,350.00
2023-03-26T15:27:35.668Z,348.00
2023-03-26T15:31:35.902Z,345.00
2023-03-26T15:35:36.081Z,349.00
2023-03-26T15:39:36.269Z,347.00
2023-03-26T15:43:36.460Z,355.00
2023-03-26T15:47:36.700Z,352.00
2023-03-26T15:51:47.382Z,351.00
2023-03-26T15:55:37.868Z,345.00
2023-03-26T15:59:36.846Z,347.00
2023-03-26T16:03:36.908Z,349.00
2023-03-26T16:07:36.862Z,352.00
2023-03-26T16:11:36.842Z,348.00
2023-03-26T16:15:36.830Z,353.00
2023-03-26T16:19:36.749Z,350.00
2023-03-26T16:23:47.604Z,349.00
2023-03-26T16:27:37.678Z,350.00
2023-03-26T16:31:38.670Z,353.00
2023-03-26T16:35:36.624Z,356.00
2023-03-26T16:39:36.567Z,354.00
2023-03-26T16:43:36.533Z,351.00
2023-03-26T16:47:36.524Z,350.00
2023-03-26T16:51:36.464Z,353.00
2023-03-26T16:55:36.416Z,351.00
2023-03-26T16:59:36.391Z,350.00
2023-03-26T17:03:36.471Z,354.00
2023-03-26T17:07:36.308Z,348.00
2023-03-26T17:11:36.281Z,355.00
2023-03-26T17:15:36.461Z,356.00
2023-03-26T17:19:36.402Z,358.00
2023-03-26T17:23:38.355Z,352.00
2023-03-26T17:27:36.344Z,355.00
2023-03-26T17:31:36.390Z,359.00
2023-03-26T17:35:36.315Z,357.00
2023-03-26T17:39:36.230Z,355.00
2023-03-26T17:43:36.194Z,352.00
2023-03-26T17:47:36.211Z,349.00
2023-03-26T17:51:36.169Z,351.00
2023-03-26T17:55:36.084Z,352.00
2023-03-26T17:59:38.813Z,352.00
2023-03-26T18:03:36.160Z,350.00
2023-03-26T18:07:36.114Z,350.00
2023-03-26T18:11:36.076Z,355.00
2023-03-26T18:15:36.054Z,354.00
2023-03-26T18:19:35.999Z,350.00
2023-03-26T18:23:35.988Z,351.00
2023-03-26T18:27:35.927Z,352.00
2023-03-26T18:31:35.910Z,348.00
2023-03-26T18:35:36.026Z,349.00
2023-03-26T18:39:35.959Z,351.00
2023-03-26T18:43:43.724Z,349.00
2023-03-26T18:47:36.909Z,351.00
2023-03-26T18:51:43.258Z,349.00
2023-03-26T18:55:36.808Z,352.00
2023-03-26T18:59:35.771Z,350.00
2023-03-26T19:03:36.829Z,353.00
2023-03-26T19:07:35.689Z,356.00
2023-03-26T19:11:35.885Z,356.00
2023-03-26T19:15:35.858Z,354.00
2023-03-26T19:19:35.805Z,353.00
2023-03-26T19:23:35.762Z,351.00
2023-03-26T19:27:35.729Z,352.00
2023-03-26T19:31:35.713Z,354.00
2023-03-26T19:35:35.689Z,356.00
2023-03-26T19:39:37.470Z,356.00
2023-03-26T19:43:35.578Z,354.00
2023-03-26T19:47:48.381Z,357.00
2023-03-26T19:51:36.700Z,356.00
2023-03-26T19:55:35.661Z,354.00
2023-03-26T19:59:35.771Z,358.00
2023-03-26T20:03:35.999Z,353.00
2023-03-26T20:07:36.482Z,354.00
2023-03-26T20:11:36.242Z,358.00
2023-03-26T20:15:36.413Z,358.00
2023-03-26T20:19:36.578Z,353.00
2023-03-26T20:23:36.701Z,355.00
2023-03-26T20:27:36.853Z,356.00
2023-03-26T20:31:37.092Z,355.00
2023-03-26T20:35:37.231Z,358.00
2023-03-26T20:39:37.393Z,357.00
2023-03-26T20:43:37.586Z,352.00
2023-03-26T20:47:37.803Z,352.00
2023-03-26T20:51:37.945Z,350.00
2023-03-26T20:55:38.165Z,351.00
2023-03-26T20:59:38.440Z,356.00
2023-03-26T21:03:38.553Z,360.00
2023-03-26T21:07:38.729Z,356.00
2023-03-26T21:11:38.888Z,362.00
2023-03-26T21:15:39.084Z,361.00
2023-03-26T21:19:39.313Z,363.00
2023-03-26T21:23:39.470Z,356.00
2023-03-26T21:27:39.628Z,358.00
2023-03-26T21:31:39.876Z,358.00
2023-03-26T21:35:40.039Z,353.00
2023-03-26T21:39:40.142Z,352.00
2023-03-26T21:43:40.289Z,358.00
2023-03-26T21:47:40.493Z,360.00
2023-03-26T21:51:40.652Z,357.00
2023-03-26T21:55:40.787Z,359.00
2023-03-26T21:59:40.929Z,353.00
2023-03-26T22:03:41.072Z,354.00
2023-03-26T22:07:41.132Z,356.00
2023-03-26T22:11:41.204Z,356.00
2023-03-26T22:15:41.351Z,355.00
2023-03-26T22:19:41.439Z,357.00
2023-03-26T22:23:41.562Z,355.00
2023-03-26T22:27:44.470Z,358.00
2023-03-26T22:31:41.625Z,355.00
2023-03-26T22:35:41.619Z,349.00
2023-03-26T22:39:41.536Z,349.00
2023-03-26T22:43:41.498Z,352.00
2023-03-26T22:47:41.484Z,351.00
2023-03-26T22:51:41.423Z,349.00
2023-03-26T22:55:41.368Z,351.00
2023-03-26T22:59:41.333Z,353.00
2023-03-26T23:03:41.313Z,351.00
2023-03-26T23:07:41.269Z,353.00
2023-03-26T23:11:41.302Z,353.00
2023-03-26T23:15:41.245Z,352.00
2023-03-26T23:19:41.229Z,354.00
2023-03-26T23:23:41.191Z,355.00
2023-03-26T23:27:41.259Z,361.00
2023-03-26T23:31:41.164Z,356.00
2023-03-26T23:35:41.143Z,360.00
2023-03-26T23:39:41.052Z,358.00
2023-03-26T23:43:54.596Z,357.00
2023-03-26T23:47:42.413Z,357.00
2023-03-26T23:51:40.937Z,356.00
2023-03-26T23:55:41.015Z,355.00
2023-03-26T23:59:41.450Z,355.00
